sensor_id;sensor_type;location;lat;lon;timestamp;temperature;humidity
14397;DHT22;50653;47.810;13.022;2022-11-15T00:00:29;9.80;93.50
14397;DHT22;50653;47.810;13.022;2022-11-15T00:03:21;9.70;94.00
14397;DHT22;50653;47.810;13.022;2022-11-15T00:06:06;9.90;93.30
14397;DHT22;50653;47.810;13.022;2022-11-15T00:08:50;9.90;93.40
14397;DHT22;50653;47.810;13.022;2022-11-15T00:11:34;9.90;93.20
14397;DHT22;50653;47.810;13.022;2022-11-15T00:14:18;9.80;93.30
14397;DHT22;50653;47.810;13.022;2022-11-15T00:17:02;9.70;93.30
14397;DHT22;50653;47.810;13.022;2022-11-15T00:19:46;9.80;93.30
14397;DHT22;50653;47.810;13.022;2022-11-15T00:22:33;9.60;93.40
14397;DHT22;50653;47.810;13.022;2022-11-15T00:25:18;9.50;93.50
14397;DHT22;50653;47.810;13.022;2022-11-15T00:28:02;9.30;93.70
14397;DHT22;50653;47.810;13.022;2022-11-15T00:30:47;9.20;93.90
14397;DHT22;50653;47.810;13.022;2022-11-15T00:33:31;9.10;94.00
14397;DHT22;50653;47.810;13.022;2022-11-15T00:36:15;9.10;94.20
14397;DHT22;50653;47.810;13.022;2022-11-15T00:39:00;9.10;94.20
14397;DHT22;50653;47.810;13.022;2022-11-15T00:41:44;9.10;94.20
14397;DHT22;50653;47.810;13.022;2022-11-15T00:44:28;9.20;94.20
14397;DHT22;50653;47.810;13.022;2022-11-15T00:47:12;9.30;94.00
14397;DHT22;50653;47.810;13.022;2022-11-15T00:49:56;9.50;93.90
14397;DHT22;50653;47.810;13.022;2022-11-15T00:52:40;9.50;93.60
14397;DHT22;50653;47.810;13.022;2022-11-15T00:55:25;9.40;93.80
14397;DHT22;50653;47.810;13.022;2022-11-15T00:58:09;9.20;93.90
14397;DHT22;50653;47.810;13.022;2022-11-15T01:00:53;9.20;94.20
14397;DHT22;50653;47.810;13.022;2022-11-15T01:03:39;9.30;94.10
14397;DHT22;50653;47.810;13.022;2022-11-15T01:06:24;9.30;93.90
14397;DHT22;50653;47.810;13.022;2022-11-15T01:09:08;9.50;93.60
14397;DHT22;50653;47.810;13.022;2022-11-15T01:11:53;9.50;93.50
14397;DHT22;50653;47.810;13.022;2022-11-15T01:14:37;9.60;93.70
14397;DHT22;50653;47.810;13.022;2022-11-15T01:17:20;9.60;93.30
14397;DHT22;50653;47.810;13.022;2022-11-15T01:20:06;9.50;93.40
14397;DHT22;50653;47.810;13.022;2022-11-15T01:22:50;9.50;93.10
14397;DHT22;50653;47.810;13.022;2022-11-15T01:25:34;9.60;93.30
14397;DHT22;50653;47.810;13.022;2022-11-15T01:28:18;9.60;93.20
14397;DHT22;50653;47.810;13.022;2022-11-15T01:31:04;9.50;93.00
14397;DHT22;50653;47.810;13.022;2022-11-15T01:33:49;9.10;93.80
14397;DHT22;50653;47.810;13.022;2022-11-15T01:36:34;8.90;94.50
14397;DHT22;50653;47.810;13.022;2022-11-15T01:39:18;8.80;94.70
14397;DHT22;50653;47.810;13.022;2022-11-15T01:42:03;8.80;94.70
14397;DHT22;50653;47.810;13.022;2022-11-15T01:44:49;8.80;94.60
14397;DHT22;50653;47.810;13.022;2022-11-15T01:47:45;8.90;94.60
14397;DHT22;50653;47.810;13.022;2022-11-15T01:50:32;9.00;94.30
14397;DHT22;50653;47.810;13.022;2022-11-15T01:53:18;9.10;93.90
14397;DHT22;50653;47.810;13.022;2022-11-15T01:56:06;9.30;93.40
14397;DHT22;50653;47.810;13.022;2022-11-15T01:58:52;9.40;93.50
14397;DHT22;50653;47.810;13.022;2022-11-15T02:01:37;9.10;93.50
14397;DHT22;50653;47.810;13.022;2022-11-15T02:04:37;9.10;93.50
14397;DHT22;50653;47.810;13.022;2022-11-15T02:07:24;9.00;93.40
14397;DHT22;50653;47.810;13.022;2022-11-15T02:10:18;9.00;93.30
14397;DHT22;50653;47.810;13.022;2022-11-15T02:13:02;9.10;92.90
14397;DHT22;50653;47.810;13.022;2022-11-15T02:19:05;8.70;93.30
14397;DHT22;50653;47.810;13.022;2022-11-15T02:22:21;8.70;93.40
14397;DHT22;50653;47.810;13.022;2022-11-15T02:25:16;8.70;93.20
14397;DHT22;50653;47.810;13.022;2022-11-15T02:31:39;8.90;92.20
14397;DHT22;50653;47.810;13.022;2022-11-15T02:37:53;9.10;92.10
14397;DHT22;50653;47.810;13.022;2022-11-15T02:44:26;8.90;91.90
14397;DHT22;50653;47.810;13.022;2022-11-15T02:47:15;8.80;92.00
14397;DHT22;50653;47.810;13.022;2022-11-15T02:50:06;8.70;92.20
14397;DHT22;50653;47.810;13.022;2022-11-15T02:52:52;8.60;92.40
14397;DHT22;50653;47.810;13.022;2022-11-15T02:55:40;8.60;92.50
14397;DHT22;50653;47.810;13.022;2022-11-15T02:59:12;8.60;92.80
14397;DHT22;50653;47.810;13.022;2022-11-15T03:02:07;8.70;92.70
14397;DHT22;50653;47.810;13.022;2022-11-15T03:05:04;8.70;92.50
14397;DHT22;50653;47.810;13.022;2022-11-15T03:08:17;8.70;92.20
14397;DHT22;50653;47.810;13.022;2022-11-15T03:11:16;8.80;92.20
14397;DHT22;50653;47.810;13.022;2022-11-15T03:14:21;8.90;91.90
14397;DHT22;50653;47.810;13.022;2022-11-15T03:20:03;8.80;92.00
14397;DHT22;50653;47.810;13.022;2022-11-15T03:22:49;8.80;91.90
14397;DHT22;50653;47.810;13.022;2022-11-15T03:25:38;8.80;91.90
14397;DHT22;50653;47.810;13.022;2022-11-15T03:28:37;8.80;91.90
14397;DHT22;50653;47.810;13.022;2022-11-15T03:31:24;8.80;92.00
14397;DHT22;50653;47.810;13.022;2022-11-15T03:37:27;8.70;92.10
14397;DHT22;50653;47.810;13.022;2022-11-15T03:40:13;8.70;92.10
14397;DHT22;50653;47.810;13.022;2022-11-15T03:43:09;8.60;92.40
14397;DHT22;50653;47.810;13.022;2022-11-15T03:46:01;8.70;92.20
14397;DHT22;50653;47.810;13.022;2022-11-15T03:52:04;8.70;91.80
14397;DHT22;50653;47.810;13.022;2022-11-15T03:54:56;8.80;91.90
14397;DHT22;50653;47.810;13.022;2022-11-15T03:57:40;8.90;92.10
14397;DHT22;50653;47.810;13.022;2022-11-15T04:00:24;8.90;91.90
14397;DHT22;50653;47.810;13.022;2022-11-15T04:03:08;8.90;91.60
14397;DHT22;50653;47.810;13.022;2022-11-15T04:05:52;8.90;91.70
14397;DHT22;50653;47.810;13.022;2022-11-15T04:08:36;8.70;91.50
14397;DHT22;50653;47.810;13.022;2022-11-15T04:11:20;8.80;91.70
14397;DHT22;50653;47.810;13.022;2022-11-15T04:14:05;8.60;91.80
14397;DHT22;50653;47.810;13.022;2022-11-15T04:16:49;8.70;92.00
14397;DHT22;50653;47.810;13.022;2022-11-15T04:19:33;8.70;91.70
14397;DHT22;50653;47.810;13.022;2022-11-15T04:22:36;8.80;91.90
14397;DHT22;50653;47.810;13.022;2022-11-15T04:25:39;8.60;91.80
14397;DHT22;50653;47.810;13.022;2022-11-15T04:28:23;8.50;91.90
14397;DHT22;50653;47.810;13.022;2022-11-15T04:31:07;8.50;92.10
14397;DHT22;50653;47.810;13.022;2022-11-15T04:33:52;8.40;91.90
14397;DHT22;50653;47.810;13.022;2022-11-15T04:36:36;8.30;92.20
14397;DHT22;50653;47.810;13.022;2022-11-15T04:39:40;8.50;92.00
14397;DHT22;50653;47.810;13.022;2022-11-15T04:42:25;8.40;92.10
14397;DHT22;50653;47.810;13.022;2022-11-15T04:45:09;8.40;91.80
14397;DHT22;50653;47.810;13.022;2022-11-15T04:47:53;8.40;91.80
14397;DHT22;50653;47.810;13.022;2022-11-15T04:50:37;8.50;91.90
14397;DHT22;50653;47.810;13.022;2022-11-15T04:53:21;8.30;91.90
14397;DHT22;50653;47.810;13.022;2022-11-15T04:56:06;8.20;92.20
14397;DHT22;50653;47.810;13.022;2022-11-15T04:58:50;8.30;92.20
14397;DHT22;50653;47.810;13.022;2022-11-15T05:01:34;8.20;92.20
14397;DHT22;50653;47.810;13.022;2022-11-15T05:04:19;8.30;92.20
14397;DHT22;50653;47.810;13.022;2022-11-15T05:07:03;8.30;92.20
14397;DHT22;50653;47.810;13.022;2022-11-15T05:09:50;8.30;92.00
14397;DHT22;50653;47.810;13.022;2022-11-15T05:12:35;8.30;92.10
14397;DHT22;50653;47.810;13.022;2022-11-15T05:15:19;8.50;91.80
14397;DHT22;50653;47.810;13.022;2022-11-15T05:18:03;8.50;91.90
14397;DHT22;50653;47.810;13.022;2022-11-15T05:20:47;8.50;91.70
14397;DHT22;50653;47.810;13.022;2022-11-15T05:23:32;8.30;91.70
14397;DHT22;50653;47.810;13.022;2022-11-15T05:26:17;8.20;92.00
14397;DHT22;50653;47.810;13.022;2022-11-15T05:29:02;8.20;92.10
14397;DHT22;50653;47.810;13.022;2022-11-15T05:31:46;8.20;92.00
14397;DHT22;50653;47.810;13.022;2022-11-15T05:34:30;8.30;91.90
14397;DHT22;50653;47.810;13.022;2022-11-15T05:37:15;8.20;91.80
14397;DHT22;50653;47.810;13.022;2022-11-15T05:40:00;8.30;92.00
14397;DHT22;50653;47.810;13.022;2022-11-15T05:42:44;8.30;91.70
14397;DHT22;50653;47.810;13.022;2022-11-15T05:45:29;8.30;91.60
14397;DHT22;50653;47.810;13.022;2022-11-15T05:48:14;8.40;91.70
14397;DHT22;50653;47.810;13.022;2022-11-15T05:50:59;8.30;91.90
14397;DHT22;50653;47.810;13.022;2022-11-15T05:53:44;8.30;91.60
14397;DHT22;50653;47.810;13.022;2022-11-15T05:56:29;8.40;91.50
14397;DHT22;50653;47.810;13.022;2022-11-15T05:59:24;8.20;91.50
14397;DHT22;50653;47.810;13.022;2022-11-15T06:02:10;8.50;91.70
14397;DHT22;50653;47.810;13.022;2022-11-15T06:04:54;8.60;91.20
14397;DHT22;50653;47.810;13.022;2022-11-15T06:07:38;8.60;91.20
14397;DHT22;50653;47.810;13.022;2022-11-15T06:10:22;8.70;91.10
14397;DHT22;50653;47.810;13.022;2022-11-15T06:13:06;8.70;91.00
14397;DHT22;50653;47.810;13.022;2022-11-15T06:15:51;8.60;90.90
14397;DHT22;50653;47.810;13.022;2022-11-15T06:18:36;8.60;90.90
14397;DHT22;50653;47.810;13.022;2022-11-15T06:21:20;8.60;91.20
14397;DHT22;50653;47.810;13.022;2022-11-15T06:24:05;8.60;91.20
14397;DHT22;50653;47.810;13.022;2022-11-15T06:26:50;8.40;91.20
14397;DHT22;50653;47.810;13.022;2022-11-15T06:29:34;8.50;91.00
14397;DHT22;50653;47.810;13.022;2022-11-15T06:32:18;8.60;91.20
14397;DHT22;50653;47.810;13.022;2022-11-15T06:35:02;8.40;90.90
14397;DHT22;50653;47.810;13.022;2022-11-15T06:37:46;8.40;91.60
14397;DHT22;50653;47.810;13.022;2022-11-15T06:40:36;8.50;91.10
14397;DHT22;50653;47.810;13.022;2022-11-15T06:43:21;8.30;91.10
14397;DHT22;50653;47.810;13.022;2022-11-15T06:46:05;8.10;91.50
14397;DHT22;50653;47.810;13.022;2022-11-15T06:48:53;8.00;91.80
14397;DHT22;50653;47.810;13.022;2022-11-15T06:51:37;7.80;92.10
14397;DHT22;50653;47.810;13.022;2022-11-15T06:54:22;7.80;92.20
14397;DHT22;50653;47.810;13.022;2022-11-15T06:57:06;8.00;92.20
14397;DHT22;50653;47.810;13.022;2022-11-15T06:59:50;8.00;92.10
14397;DHT22;50653;47.810;13.022;2022-11-15T07:02:34;7.90;91.90
14397;DHT22;50653;47.810;13.022;2022-11-15T07:05:18;8.10;92.20
14397;DHT22;50653;47.810;13.022;2022-11-15T07:08:03;8.10;91.90
14397;DHT22;50653;47.810;13.022;2022-11-15T07:10:48;8.00;91.80
14397;DHT22;50653;47.810;13.022;2022-11-15T07:13:32;8.10;92.00
14397;DHT22;50653;47.810;13.022;2022-11-15T07:16:17;8.10;91.80
14397;DHT22;50653;47.810;13.022;2022-11-15T07:19:01;8.20;91.70
14397;DHT22;50653;47.810;13.022;2022-11-15T07:21:45;8.20;91.70
14397;DHT22;50653;47.810;13.022;2022-11-15T07:24:30;8.10;91.60
14397;DHT22;50653;47.810;13.022;2022-11-15T07:27:14;8.30;91.80
14397;DHT22;50653;47.810;13.022;2022-11-15T07:29:58;8.40;91.60
14397;DHT22;50653;47.810;13.022;2022-11-15T07:32:43;8.50;91.30
14397;DHT22;50653;47.810;13.022;2022-11-15T07:35:28;8.50;91.10
14397;DHT22;50653;47.810;13.022;2022-11-15T07:38:12;8.50;91.00
14397;DHT22;50653;47.810;13.022;2022-11-15T07:41:02;8.60;91.10
14397;DHT22;50653;47.810;13.022;2022-11-15T07:43:46;8.70;90.80
14397;DHT22;50653;47.810;13.022;2022-11-15T07:46:31;8.80;90.60
14397;DHT22;50653;47.810;13.022;2022-11-15T07:49:16;8.70;90.50
14397;DHT22;50653;47.810;13.022;2022-11-15T07:52:00;8.80;90.50
14397;DHT22;50653;47.810;13.022;2022-11-15T07:54:44;8.80;90.20
14397;DHT22;50653;47.810;13.022;2022-11-15T07:57:29;8.90;90.00
14397;DHT22;50653;47.810;13.022;2022-11-15T08:00:13;8.90;90.20
14397;DHT22;50653;47.810;13.022;2022-11-15T08:03:07;8.90;90.00
14397;DHT22;50653;47.810;13.022;2022-11-15T08:05:51;9.00;90.20
14397;DHT22;50653;47.810;13.022;2022-11-15T08:08:35;9.20;90.20
14397;DHT22;50653;47.810;13.022;2022-11-15T08:11:20;9.20;90.30
14397;DHT22;50653;47.810;13.022;2022-11-15T08:14:04;9.20;90.20
14397;DHT22;50653;47.810;13.022;2022-11-15T08:16:48;9.30;90.00
14397;DHT22;50653;47.810;13.022;2022-11-15T08:19:32;9.40;89.70
14397;DHT22;50653;47.810;13.022;2022-11-15T08:22:17;9.40;89.50
14397;DHT22;50653;47.810;13.022;2022-11-15T08:25:01;9.40;89.40
14397;DHT22;50653;47.810;13.022;2022-11-15T08:27:45;9.50;89.30
14397;DHT22;50653;47.810;13.022;2022-11-15T08:30:30;9.50;89.10
14397;DHT22;50653;47.810;13.022;2022-11-15T08:33:14;9.60;88.60
14397;DHT22;50653;47.810;13.022;2022-11-15T08:36:00;9.60;88.20
14397;DHT22;50653;47.810;13.022;2022-11-15T08:38:44;9.70;87.90
14397;DHT22;50653;47.810;13.022;2022-11-15T08:41:34;9.80;88.60
14397;DHT22;50653;47.810;13.022;2022-11-15T08:44:19;9.80;87.60
14397;DHT22;50653;47.810;13.022;2022-11-15T08:47:03;9.90;87.40
14397;DHT22;50653;47.810;13.022;2022-11-15T08:49:47;10.00;86.10
14397;DHT22;50653;47.810;13.022;2022-11-15T08:52:31;10.00;85.90
14397;DHT22;50653;47.810;13.022;2022-11-15T08:55:16;10.10;85.70
14397;DHT22;50653;47.810;13.022;2022-11-15T08:57:59;10.10;84.40
14397;DHT22;50653;47.810;13.022;2022-11-15T09:00:44;10.20;83.90
14397;DHT22;50653;47.810;13.022;2022-11-15T09:03:28;10.20;83.70
14397;DHT22;50653;47.810;13.022;2022-11-15T09:06:13;10.30;84.00
14397;DHT22;50653;47.810;13.022;2022-11-15T09:08:57;10.40;83.10
14397;DHT22;50653;47.810;13.022;2022-11-15T09:11:41;10.50;81.90
14397;DHT22;50653;47.810;13.022;2022-11-15T09:14:25;10.50;81.60
14397;DHT22;50653;47.810;13.022;2022-11-15T09:17:10;10.50;80.80
14397;DHT22;50653;47.810;13.022;2022-11-15T09:19:54;10.60;80.60
14397;DHT22;50653;47.810;13.022;2022-11-15T09:22:38;10.70;79.90
14397;DHT22;50653;47.810;13.022;2022-11-15T09:25:22;10.70;79.80
14397;DHT22;50653;47.810;13.022;2022-11-15T09:28:07;10.70;79.80
14397;DHT22;50653;47.810;13.022;2022-11-15T09:30:55;10.80;78.90
14397;DHT22;50653;47.810;13.022;2022-11-15T09:33:39;10.80;78.90
14397;DHT22;50653;47.810;13.022;2022-11-15T09:36:23;10.90;78.10
14397;DHT22;50653;47.810;13.022;2022-11-15T09:39:08;10.90;78.00
14397;DHT22;50653;47.810;13.022;2022-11-15T09:42:08;10.90;78.30
14397;DHT22;50653;47.810;13.022;2022-11-15T09:45:06;11.00;78.30
14397;DHT22;50653;47.810;13.022;2022-11-15T09:48:00;11.10;77.60
14397;DHT22;50653;47.810;13.022;2022-11-15T09:50:50;11.10;77.90
14397;DHT22;50653;47.810;13.022;2022-11-15T09:53:47;11.10;78.50
14397;DHT22;50653;47.810;13.022;2022-11-15T09:56:19;11.20;78.30
14397;DHT22;50653;47.810;13.022;2022-11-15T09:59:14;11.10;78.20
14397;DHT22;50653;47.810;13.022;2022-11-15T10:04:33;11.30;78.60
14397;DHT22;50653;47.810;13.022;2022-11-15T10:07:19;11.30;78.70
14397;DHT22;50653;47.810;13.022;2022-11-15T10:10:04;11.30;78.30
14397;DHT22;50653;47.810;13.022;2022-11-15T10:12:33;11.30;77.70
14397;DHT22;50653;47.810;13.022;2022-11-15T10:15:05;11.40;77.20
14397;DHT22;50653;47.810;13.022;2022-11-15T10:17:54;11.40;77.80
14397;DHT22;50653;47.810;13.022;2022-11-15T10:20:24;11.40;78.10
14397;DHT22;50653;47.810;13.022;2022-11-15T10:22:52;11.50;77.40
14397;DHT22;50653;47.810;13.022;2022-11-15T10:25:30;11.50;77.40
14397;DHT22;50653;47.810;13.022;2022-11-15T10:30:44;11.60;77.30
14397;DHT22;50653;47.810;13.022;2022-11-15T10:41:18;11.70;76.70
14397;DHT22;50653;47.810;13.022;2022-11-15T10:43:45;11.70;76.60
14397;DHT22;50653;47.810;13.022;2022-11-15T10:46:20;11.80;76.60
14397;DHT22;50653;47.810;13.022;2022-11-15T10:48:46;11.80;77.00
14397;DHT22;50653;47.810;13.022;2022-11-15T10:51:43;11.70;77.10
14397;DHT22;50653;47.810;13.022;2022-11-15T10:54:10;11.80;76.70
14397;DHT22;50653;47.810;13.022;2022-11-15T10:56:39;11.90;76.90
14397;DHT22;50653;47.810;13.022;2022-11-15T10:59:07;11.80;76.80
14397;DHT22;50653;47.810;13.022;2022-11-15T11:01:46;11.90;77.30
14397;DHT22;50653;47.810;13.022;2022-11-15T11:04:12;11.90;77.20
14397;DHT22;50653;47.810;13.022;2022-11-15T11:06:55;11.90;77.60
14397;DHT22;50653;47.810;13.022;2022-11-15T11:09:36;11.90;78.00
14397;DHT22;50653;47.810;13.022;2022-11-15T11:12:04;11.90;77.50
14397;DHT22;50653;47.810;13.022;2022-11-15T11:14:32;11.90;77.60
14397;DHT22;50653;47.810;13.022;2022-11-15T11:17:15;11.90;78.10
14397;DHT22;50653;47.810;13.022;2022-11-15T11:25:23;12.20;75.80
14397;DHT22;50653;47.810;13.022;2022-11-15T11:28:04;12.10;77.10
14397;DHT22;50653;47.810;13.022;2022-11-15T11:30:39;12.10;77.20
14397;DHT22;50653;47.810;13.022;2022-11-15T11:33:30;12.10;77.20
14397;DHT22;50653;47.810;13.022;2022-11-15T11:36:21;12.10;76.30
14397;DHT22;50653;47.810;13.022;2022-11-15T11:38:56;12.20;75.60
14397;DHT22;50653;47.810;13.022;2022-11-15T11:44:17;12.20;76.00
14397;DHT22;50653;47.810;13.022;2022-11-15T11:49:39;12.30;76.50
14397;DHT22;50653;47.810;13.022;2022-11-15T11:54:53;12.20;77.40
14397;DHT22;50653;47.810;13.022;2022-11-15T12:00:21;12.30;77.10
14397;DHT22;50653;47.810;13.022;2022-11-15T12:02:59;12.40;77.10
14397;DHT22;50653;47.810;13.022;2022-11-15T12:05:35;12.70;75.70
14397;DHT22;50653;47.810;13.022;2022-11-15T12:08:37;12.70;75.80
14397;DHT22;50653;47.810;13.022;2022-11-15T12:11:29;12.50;76.00
14397;DHT22;50653;47.810;13.022;2022-11-15T12:13:59;12.50;76.70
14397;DHT22;50653;47.810;13.022;2022-11-15T12:16:28;12.50;77.50
14397;DHT22;50653;47.810;13.022;2022-11-15T12:18:56;12.40;77.60
14397;DHT22;50653;47.810;13.022;2022-11-15T12:24:18;12.50;78.50
14397;DHT22;50653;47.810;13.022;2022-11-15T12:26:52;12.50;78.10
14397;DHT22;50653;47.810;13.022;2022-11-15T12:29:37;12.70;78.10
14397;DHT22;50653;47.810;13.022;2022-11-15T12:32:03;12.70;77.10
14397;DHT22;50653;47.810;13.022;2022-11-15T12:34:38;12.70;77.70
14397;DHT22;50653;47.810;13.022;2022-11-15T12:43:02;12.90;79.10
14397;DHT22;50653;47.810;13.022;2022-11-15T12:45:34;13.20;78.70
14397;DHT22;50653;47.810;13.022;2022-11-15T12:51:00;13.50;79.10
14397;DHT22;50653;47.810;13.022;2022-11-15T12:53:32;13.50;79.40
14397;DHT22;50653;47.810;13.022;2022-11-15T12:58:46;13.40;79.00
14397;DHT22;50653;47.810;13.022;2022-11-15T13:04:12;13.70;79.80
14397;DHT22;50653;47.810;13.022;2022-11-15T13:06:47;13.70;79.70
14397;DHT22;50653;47.810;13.022;2022-11-15T13:14:52;13.80;79.60
14397;DHT22;50653;47.810;13.022;2022-11-15T13:17:35;13.80;79.80
14397;DHT22;50653;47.810;13.022;2022-11-15T13:30:50;13.80;81.10
14397;DHT22;50653;47.810;13.022;2022-11-15T13:33:19;13.90;81.50
14397;DHT22;50653;47.810;13.022;2022-11-15T13:35:52;13.90;82.00
14397;DHT22;50653;47.810;13.022;2022-11-15T13:38:29;14.00;83.50
14397;DHT22;50653;47.810;13.022;2022-11-15T13:40:57;14.00;83.60
14397;DHT22;50653;47.810;13.022;2022-11-15T13:46:15;14.20;84.60
14397;DHT22;50653;47.810;13.022;2022-11-15T13:48:43;14.30;84.60
14397;DHT22;50653;47.810;13.022;2022-11-15T13:56:54;14.30;84.80
14397;DHT22;50653;47.810;13.022;2022-11-15T13:59:54;14.20;84.70
14397;DHT22;50653;47.810;13.022;2022-11-15T14:02:29;14.30;83.80
14397;DHT22;50653;47.810;13.022;2022-11-15T14:04:58;14.40;84.10
14397;DHT22;50653;47.810;13.022;2022-11-15T14:07:26;14.40;83.90
14397;DHT22;50653;47.810;13.022;2022-11-15T14:09:55;14.50;83.20
14397;DHT22;50653;47.810;13.022;2022-11-15T14:14:58;14.40;83.80
14397;DHT22;50653;47.810;13.022;2022-11-15T14:19:56;14.40;83.30
14397;DHT22;50653;47.810;13.022;2022-11-15T14:22:27;14.40;83.10
14397;DHT22;50653;47.810;13.022;2022-11-15T14:25:16;14.40;83.80
14397;DHT22;50653;47.810;13.022;2022-11-15T14:30:35;14.40;82.00
14397;DHT22;50653;47.810;13.022;2022-11-15T14:33:01;14.40;82.20
14397;DHT22;50653;47.810;13.022;2022-11-15T14:35:28;14.40;82.30
14397;DHT22;50653;47.810;13.022;2022-11-15T14:37:53;14.40;82.10
14397;DHT22;50653;47.810;13.022;2022-11-15T14:40:21;14.30;82.30
14397;DHT22;50653;47.810;13.022;2022-11-15T14:42:48;14.30;82.20
14397;DHT22;50653;47.810;13.022;2022-11-15T14:45:15;14.20;83.20
14397;DHT22;50653;47.810;13.022;2022-11-15T14:47:42;14.20;82.80
14397;DHT22;50653;47.810;13.022;2022-11-15T14:50:15;14.20;83.20
14397;DHT22;50653;47.810;13.022;2022-11-15T14:52:42;14.10;83.10
14397;DHT22;50653;47.810;13.022;2022-11-15T14:55:26;14.00;83.30
14397;DHT22;50653;47.810;13.022;2022-11-15T14:57:54;13.90;82.70
14397;DHT22;50653;47.810;13.022;2022-11-15T15:00:21;13.80;83.30
14397;DHT22;50653;47.810;13.022;2022-11-15T15:02:47;13.80;83.40
14397;DHT22;50653;47.810;13.022;2022-11-15T15:05:19;13.80;83.60
14397;DHT22;50653;47.810;13.022;2022-11-15T15:07:46;13.70;83.40
14397;DHT22;50653;47.810;13.022;2022-11-15T15:10:12;13.60;83.00
14397;DHT22;50653;47.810;13.022;2022-11-15T15:12:38;13.60;83.50
14397;DHT22;50653;47.810;13.022;2022-11-15T15:15:05;13.50;83.40
14397;DHT22;50653;47.810;13.022;2022-11-15T15:17:31;13.40;83.40
14397;DHT22;50653;47.810;13.022;2022-11-15T15:19:56;13.40;83.70
14397;DHT22;50653;47.810;13.022;2022-11-15T15:22:22;13.30;83.80
14397;DHT22;50653;47.810;13.022;2022-11-15T15:24:50;13.20;83.80
14397;DHT22;50653;47.810;13.022;2022-11-15T15:27:16;13.20;84.10
14397;DHT22;50653;47.810;13.022;2022-11-15T15:29:42;13.20;84.20
14397;DHT22;50653;47.810;13.022;2022-11-15T15:32:08;13.10;84.40
14397;DHT22;50653;47.810;13.022;2022-11-15T15:34:34;13.00;84.40
14397;DHT22;50653;47.810;13.022;2022-11-15T15:37:21;13.00;84.60
14397;DHT22;50653;47.810;13.022;2022-11-15T15:39:54;12.90;84.90
14397;DHT22;50653;47.810;13.022;2022-11-15T15:42:21;12.90;85.40
14397;DHT22;50653;47.810;13.022;2022-11-15T15:44:48;12.80;86.30
14397;DHT22;50653;47.810;13.022;2022-11-15T15:47:19;12.80;85.80
14397;DHT22;50653;47.810;13.022;2022-11-15T15:49:46;12.70;85.70
14397;DHT22;50653;47.810;13.022;2022-11-15T15:52:12;12.60;85.80
14397;DHT22;50653;47.810;13.022;2022-11-15T15:54:38;12.60;86.20
14397;DHT22;50653;47.810;13.022;2022-11-15T15:57:05;12.50;86.30
14397;DHT22;50653;47.810;13.022;2022-11-15T15:59:31;12.50;86.40
14397;DHT22;50653;47.810;13.022;2022-11-15T16:01:56;12.40;86.60
14397;DHT22;50653;47.810;13.022;2022-11-15T16:04:22;12.30;86.90
14397;DHT22;50653;47.810;13.022;2022-11-15T16:06:48;12.30;87.00
14397;DHT22;50653;47.810;13.022;2022-11-15T16:09:18;12.30;87.20
14397;DHT22;50653;47.810;13.022;2022-11-15T16:11:45;12.20;87.20
14397;DHT22;50653;47.810;13.022;2022-11-15T16:14:11;12.20;87.50
14397;DHT22;50653;47.810;13.022;2022-11-15T16:16:37;12.20;87.60
14397;DHT22;50653;47.810;13.022;2022-11-15T16:19:03;12.10;87.90
14397;DHT22;50653;47.810;13.022;2022-11-15T16:21:29;12.00;88.50
14397;DHT22;50653;47.810;13.022;2022-11-15T16:23:55;12.00;88.80
14397;DHT22;50653;47.810;13.022;2022-11-15T16:26:27;11.90;89.50
14397;DHT22;50653;47.810;13.022;2022-11-15T16:28:54;11.90;89.50
14397;DHT22;50653;47.810;13.022;2022-11-15T16:31:20;11.80;89.70
14397;DHT22;50653;47.810;13.022;2022-11-15T16:33:48;11.70;90.00
14397;DHT22;50653;47.810;13.022;2022-11-15T16:36:20;11.80;90.20
14397;DHT22;50653;47.810;13.022;2022-11-15T16:38:47;11.70;90.20
14397;DHT22;50653;47.810;13.022;2022-11-15T16:41:12;11.70;90.50
14397;DHT22;50653;47.810;13.022;2022-11-15T16:43:38;11.70;90.40
14397;DHT22;50653;47.810;13.022;2022-11-15T16:46:08;11.60;90.70
14397;DHT22;50653;47.810;13.022;2022-11-15T16:48:37;11.60;90.70
14397;DHT22;50653;47.810;13.022;2022-11-15T16:51:04;11.60;90.80
14397;DHT22;50653;47.810;13.022;2022-11-15T16:53:30;11.60;90.90
14397;DHT22;50653;47.810;13.022;2022-11-15T16:55:56;11.50;90.80
14397;DHT22;50653;47.810;13.022;2022-11-15T16:58:22;11.40;91.30
14397;DHT22;50653;47.810;13.022;2022-11-15T17:00:55;11.30;91.00
14397;DHT22;50653;47.810;13.022;2022-11-15T17:03:22;11.40;91.10
14397;DHT22;50653;47.810;13.022;2022-11-15T17:05:48;11.40;91.00
14397;DHT22;50653;47.810;13.022;2022-11-15T17:08:17;11.30;91.00
14397;DHT22;50653;47.810;13.022;2022-11-15T17:10:45;11.40;90.90
14397;DHT22;50653;47.810;13.022;2022-11-15T17:13:13;11.30;90.90
14397;DHT22;50653;47.810;13.022;2022-11-15T17:15:39;11.20;91.20
14397;DHT22;50653;47.810;13.022;2022-11-15T17:18:05;11.20;91.50
14397;DHT22;50653;47.810;13.022;2022-11-15T17:20:31;11.10;91.40
14397;DHT22;50653;47.810;13.022;2022-11-15T17:22:57;11.20;91.30
14397;DHT22;50653;47.810;13.022;2022-11-15T17:25:22;11.10;91.40
14397;DHT22;50653;47.810;13.022;2022-11-15T17:27:48;10.90;92.00
14397;DHT22;50653;47.810;13.022;2022-11-15T17:30:14;10.90;91.90
14397;DHT22;50653;47.810;13.022;2022-11-15T17:32:41;10.90;91.90
14397;DHT22;50653;47.810;13.022;2022-11-15T17:35:08;10.90;92.00
14397;DHT22;50653;47.810;13.022;2022-11-15T17:37:35;10.90;91.70
14397;DHT22;50653;47.810;13.022;2022-11-15T17:40:01;10.90;91.60
14397;DHT22;50653;47.810;13.022;2022-11-15T17:42:27;10.80;92.10
14397;DHT22;50653;47.810;13.022;2022-11-15T17:44:52;10.70;92.30
14397;DHT22;50653;47.810;13.022;2022-11-15T17:47:18;10.70;91.90
14397;DHT22;50653;47.810;13.022;2022-11-15T17:49:44;10.80;91.80
14397;DHT22;50653;47.810;13.022;2022-11-15T17:52:09;10.70;92.00
14397;DHT22;50653;47.810;13.022;2022-11-15T17:54:35;10.50;92.80
14397;DHT22;50653;47.810;13.022;2022-11-15T17:57:01;10.60;92.50
14397;DHT22;50653;47.810;13.022;2022-11-15T17:59:27;10.60;92.20
14397;DHT22;50653;47.810;13.022;2022-11-15T18:01:52;10.50;92.00
14397;DHT22;50653;47.810;13.022;2022-11-15T18:04:18;10.20;92.50
14397;DHT22;50653;47.810;13.022;2022-11-15T18:06:44;10.30;92.70
14397;DHT22;50653;47.810;13.022;2022-11-15T18:09:10;10.20;92.70
14397;DHT22;50653;47.810;13.022;2022-11-15T18:11:40;10.10;93.00
14397;DHT22;50653;47.810;13.022;2022-11-15T18:14:12;10.00;93.00
14397;DHT22;50653;47.810;13.022;2022-11-15T18:16:38;10.00;92.90
14397;DHT22;50653;47.810;13.022;2022-11-15T18:19:05;10.10;92.50
14397;DHT22;50653;47.810;13.022;2022-11-15T18:21:35;10.00;92.30